Time;durP1;ratioP1;P1;durP2;ratioP2;P2;SDS_P1;SDS_P2;PMS_P1;PMS_P2;Temp;Humidity;BMP_temperature;BMP_pressure;BME280_temperature;BME280_humidity;BME280_pressure;Samples;Min_cycle;Max_cycle;Signal;HPM_P1;HPM_P2
2023/12/11 00:01:48;;;;;;;1.50;1.00;;;8.60;99.90;;;9.08;100.00;96871.75;5053675;28;20507;-79
2023/12/11 00:04:17;;;;;;;4.23;1.00;;;8.60;99.90;;;9.04;100.00;96873.97;5053413;28;20851;-79
2023/12/11 00:06:46;;;;;;;1.47;1.00;;;8.50;99.90;;;9.06;100.00;96876.34;5054602;28;20514;-79
2023/12/11 00:09:15;;;;;;;3.93;1.53;;;8.60;99.90;;;9.05;100.00;96880.78;5053518;28;20821;-79
2023/12/11 00:11:43;;;;;;;5.10;1.10;;;8.60;99.90;;;9.11;100.00;96884.38;5053269;28;20468;-79
2023/12/11 00:14:12;;;;;;;1.43;1.33;;;8.70;99.90;;;9.12;100.00;96879.97;5053803;28;20526;-79
2023/12/11 00:16:43;;;;;;;1.87;1.00;;;8.70;99.90;;;9.07;100.00;96877.97;5052296;28;20461;-79
2023/12/11 00:19:13;;;;;;;2.73;1.10;;;8.60;99.90;;;9.08;100.00;96885.59;5054798;28;20559;-79
2023/12/11 00:21:42;;;;;;;2.13;1.00;;;8.70;99.90;;;9.12;100.00;96888.59;5053703;28;20589;-79
2023/12/11 00:24:11;;;;;;;7.00;1.17;;;8.80;99.90;;;9.16;100.00;96888.97;5052100;28;20592;-79
2023/12/11 00:26:39;;;;;;;1.37;1.27;;;8.70;99.90;;;9.15;100.00;96890.78;5054514;28;20463;-79
2023/12/11 00:29:09;;;;;;;1.80;1.10;;;8.60;99.90;;;9.15;100.00;96895.19;5053574;28;20534;-79
2023/12/11 00:31:39;;;;;;;3.20;0.90;;;8.60;99.90;;;9.14;100.00;96901.41;5052853;28;20461;-79
2023/12/11 00:34:08;;;;;;;2.40;1.17;;;8.70;99.90;;;9.16;100.00;96897.59;5051072;28;20982;-79
2023/12/11 00:36:38;;;;;;;2.10;1.20;;;8.70;99.90;;;9.15;100.00;96901.22;5053843;28;20464;-79
2023/12/11 00:39:06;;;;;;;4.63;1.40;;;8.70;99.90;;;9.18;100.00;96905.22;5053245;28;20488;-79
2023/12/11 00:41:35;;;;;;;9.43;1.30;;;8.80;99.90;;;9.20;100.00;96896.16;5052828;28;20477;-79
2023/12/11 00:44:03;;;;;;;1.70;1.30;;;8.90;99.90;;;9.21;100.00;96905.59;5052046;28;20516;-79
2023/12/11 00:46:32;;;;;;;4.60;1.10;;;8.80;99.90;;;9.22;100.00;96909.81;5054229;28;20873;-78
2023/12/11 00:49:01;;;;;;;4.13;1.17;;;8.80;99.90;;;9.14;100.00;96904.81;5054600;28;20468;-79
2023/12/11 00:51:29;;;;;;;1.37;0.90;;;8.80;99.90;;;9.12;100.00;96906.03;5053470;28;20489;-79
2023/12/11 00:53:59;;;;;;;4.47;1.33;;;8.70;99.90;;;9.10;100.00;96909.66;5053328;28;21163;-79
2023/12/11 00:56:29;;;;;;;2.70;1.30;;;8.70;99.90;;;9.08;100.00;96910.88;5057984;28;20472;-79
2023/12/11 00:58:57;;;;;;;6.30;1.60;;;8.70;99.90;;;9.08;100.00;96909.06;5055771;28;20465;-79
2023/12/11 01:01:26;;;;;;;6.07;1.80;;;8.60;99.90;;;9.05;100.00;96906.88;5057699;28;20483;-79
2023/12/11 01:03:54;;;;;;;2.70;1.20;;;8.60;99.90;;;9.08;100.00;96910.88;5056664;28;20507;-82
2023/12/11 01:06:23;;;;;;;3.57;1.30;;;8.60;99.90;;;9.07;100.00;96899.63;5056692;28;20464;-79
2023/12/11 01:08:52;;;;;;;2.10;1.13;;;8.60;99.90;;;9.06;100.00;96895.41;5057241;28;20482;-79
2023/12/11 01:11:21;;;;;;;2.70;1.20;;;8.60;99.90;;;9.05;100.00;96900.84;5056979;28;20457;-79
2023/12/11 01:13:50;;;;;;;15.77;1.50;;;8.60;99.90;;;9.03;100.00;96897.63;5057709;28;20472;-79
2023/12/11 01:16:19;;;;;;;3.80;1.17;;;8.60;99.90;;;9.01;100.00;96897.03;5054584;28;20469;-80
2023/12/11 01:18:47;;;;;;;4.30;1.30;;;8.60;99.90;;;9.01;100.00;96894.44;5054174;28;20827;-78
2023/12/11 01:21:16;;;;;;;1.30;1.03;;;8.50;99.90;;;8.94;100.00;96878.81;5055516;28;20547;-79
2023/12/11 01:23:45;;;;;;;2.03;1.10;;;8.40;99.90;;;8.96;100.00;96889.84;5055262;28;20622;-79
2023/12/11 01:26:13;;;;;;;3.87;1.27;;;8.40;99.90;;;8.98;100.00;96884.44;5054640;28;20472;-78
2023/12/11 01:28:43;;;;;;;3.70;1.53;;;8.40;99.90;;;8.98;100.00;96884.44;5054279;28;20509;-78
2023/12/11 01:31:12;;;;;;;4.70;1.60;;;8.40;99.90;;;9.02;100.00;96891.59;5057338;28;20473;-78
2023/12/11 01:33:40;;;;;;;2.90;1.37;;;8.50;99.90;;;9.05;100.00;96887.81;5055243;28;20457;-78
2023/12/11 01:36:10;;;;;;;3.80;1.20;;;8.50;99.90;;;9.08;100.00;96895.22;5056061;28;20496;-79
2023/12/11 01:38:38;;;;;;;6.93;2.00;;;8.60;99.90;;;9.09;100.00;96896.84;5055206;28;20469;-79
2023/12/11 01:41:07;;;;;;;4.43;1.20;;;8.60;99.90;;;9.09;100.00;96902.81;5056214;28;20882;-78
2023/12/11 01:43:36;;;;;;;8.37;3.00;;;8.70;99.90;;;9.16;100.00;96909.84;5056033;28;20493;-78
2023/12/11 01:46:12;;;;;;;7.37;1.50;;;8.70;99.90;;;9.23;100.00;96908.81;5054503;28;20517;-78
2023/12/11 01:48:42;;;;;;;5.13;1.23;;;8.70;99.90;;;9.30;100.00;96906.97;5055723;28;20986;-78
2023/12/11 01:51:14;;;;;;;5.67;1.70;;;8.90;99.90;;;9.32;100.00;96912.78;5055547;28;20474;-78
2023/12/11 01:53:43;;;;;;;12.40;1.60;;;8.90;99.90;;;9.33;100.00;96909.19;5055357;28;20458;-79
2023/12/11 01:56:12;;;;;;;3.13;1.30;;;8.90;99.90;;;9.38;100.00;96905.94;5055522;28;20468;-78
2023/12/11 01:58:40;;;;;;;3.40;1.47;;;8.90;99.90;;;9.41;100.00;96910.72;5054266;28;20469;-78
2023/12/11 02:01:12;;;;;;;11.00;1.73;;;8.90;99.90;;;9.43;100.00;96912.16;5053104;28;20484;-78
2023/12/11 02:03:42;;;;;;;2.50;1.20;;;8.90;99.90;;;9.41;100.00;96911.53;5055503;28;20608;-78
2023/12/11 02:06:11;;;;;;;5.33;1.53;;;9.00;99.90;;;9.37;100.00;96912.19;5055178;28;20469;-78
2023/12/11 02:08:39;;;;;;;3.00;1.27;;;9.00;99.90;;;9.41;100.00;96923.78;5054900;28;20471;-78
2023/12/11 02:11:08;;;;;;;4.60;1.47;;;8.90;99.90;;;9.41;100.00;96916.75;5054626;28;20514;-79
2023/12/11 02:13:39;;;;;;;7.50;1.83;;;8.90;99.90;;;9.38;100.00;96927.59;5055693;28;20465;-79
2023/12/11 02:16:13;;;;;;;6.60;1.80;;;8.90;99.90;;;9.27;100.00;96925.63;5055858;28;20978;-79
2023/12/11 02:18:42;;;;;;;5.33;1.77;;;8.80;99.90;;;9.23;100.00;96923.66;5054537;28;20467;-79
2023/12/11 02:21:12;;;;;;;10.37;2.10;;;8.80;99.90;;;9.24;100.00;96920.84;5055283;28;21014;-79
2023/12/11 02:23:50;;;;;;;8.77;1.93;;;8.80;99.90;;;9.24;100.00;96923.44;5055970;28;20921;-80
2023/12/11 02:26:20;;;;;;;13.13;2.20;;;8.80;99.90;;;9.25;100.00;96919.84;5055101;28;20487;-78
2023/12/11 02:28:49;;;;;;;9.20;2.00;;;8.80;99.90;;;9.24;100.00;96918.22;5054819;28;20468;-79
2023/12/11 02:31:18;;;;;;;5.50;1.93;;;8.80;99.90;;;9.26;100.00;96918.03;5054075;28;20493;-78
2023/12/11 02:33:46;;;;;;;5.87;1.93;;;8.80;99.90;;;9.26;100.00;96921.44;5054017;28;20480;-78
2023/12/11 02:36:15;;;;;;;12.93;2.07;;;8.80;99.90;;;9.24;100.00;96928.66;5054546;28;20535;-78
2023/12/11 02:38:44;;;;;;;7.60;2.07;;;8.70;99.90;;;9.22;100.00;96911.63;5056402;28;20464;-78
2023/12/11 02:41:12;;;;;;;5.13;1.67;;;8.70;99.90;;;9.20;100.00;96909.19;5056072;28;20453;-79
2023/12/11 02:43:42;;;;;;;4.50;1.93;;;8.70;99.90;;;9.16;100.00;96910.66;5055438;28;21298;-79
2023/12/11 02:46:11;;;;;;;9.93;2.97;;;8.80;99.90;;;9.13;100.00;96913.66;5053041;28;20542;-78
2023/12/11 02:48:40;;;;;;;9.23;2.50;;;8.70;99.90;;;9.15;100.00;96916.88;5054154;28;20479;-79
2023/12/11 02:51:09;;;;;;;4.33;1.80;;;8.70;99.90;;;9.16;100.00;96904.63;5054040;28;20521;-79
2023/12/11 02:53:37;;;;;;;4.80;1.63;;;8.70;99.90;;;9.17;100.00;96914.84;5055326;28;20460;-79
2023/12/11 02:56:07;;;;;;;7.77;2.10;;;8.70;99.90;;;9.22;100.00;96911.63;5053203;28;20456;-78
2023/12/11 02:58:36;;;;;;;7.33;2.30;;;8.80;99.90;;;9.26;100.00;96903.19;5053893;28;20534;-78
2023/12/11 03:01:06;;;;;;;5.20;1.70;;;8.80;99.90;;;9.30;100.00;96898.34;5053999;28;20495;-79
2023/12/11 03:03:35;;;;;;;8.20;1.77;;;8.80;99.90;;;9.29;100.00;96905.38;5054096;28;20507;-78
2023/12/11 03:06:04;;;;;;;14.63;1.80;;;8.80;99.90;;;9.33;100.00;96896.13;5051934;28;20461;-78
2023/12/11 03:08:33;;;;;;;13.87;1.77;;;8.90;99.90;;;9.41;100.00;96887.25;5054992;28;20453;-78
2023/12/11 03:11:01;;;;;;;5.50;1.30;;;9.00;99.90;;;9.46;100.00;96872.59;5054163;28;20473;-78
2023/12/11 03:13:30;;;;;;;7.30;1.70;;;9.10;99.90;;;9.50;100.00;96868.56;5052611;28;20967;-79
2023/12/11 03:16:05;;;;;;;5.60;1.60;;;9.10;99.90;;;9.50;100.00;96863.34;5052356;28;20975;-78
2023/12/11 03:18:34;;;;;;;5.33;1.87;;;9.00;99.90;;;9.49;100.00;96860.91;5053235;28;20465;-78
2023/12/11 03:21:03;;;;;;;8.93;1.50;;;9.10;99.90;;;9.50;100.00;96852.91;5055632;28;20471;-78
2023/12/11 03:23:31;;;;;;;9.73;1.97;;;9.00;99.90;;;9.51;100.00;96844.03;5052956;28;20533;-79
2023/12/11 03:26:00;;;;;;;3.10;1.33;;;9.10;99.90;;;9.51;100.00;96854.47;5051149;28;20457;-79
2023/12/11 03:28:28;;;;;;;5.30;1.80;;;9.10;99.90;;;9.51;100.00;96849.25;5054340;28;20538;-78
2023/12/11 03:30:57;;;;;;;8.00;1.80;;;9.10;99.90;;;9.54;100.00;96856.66;5052022;28;20468;-78
2023/12/11 03:33:27;;;;;;;5.60;1.53;;;9.20;99.90;;;9.53;100.00;96860.31;5054738;28;21068;-79
2023/12/11 03:35:55;;;;;;;8.30;1.87;;;9.20;99.90;;;9.58;100.00;96851.81;5054297;28;20472;-79
2023/12/11 03:38:24;;;;;;;14.30;1.67;;;9.10;99.90;;;9.60;100.00;96861.06;5052512;28;20460;-78
2023/12/11 03:40:52;;;;;;;18.90;2.00;;;9.10;99.90;;;9.60;100.00;96865.47;5052394;28;20495;-78
2023/12/11 03:43:21;;;;;;;6.33;1.53;;;9.20;99.90;;;9.56;100.00;96877.34;5054672;28;20491;-79
2023/12/11 03:45:50;;;;;;;5.43;1.37;;;9.20;99.90;;;9.57;100.00;96868.50;5054953;28;21151;-79
2023/12/11 03:48:18;;;;;;;4.10;1.30;;;9.20;99.90;;;9.58;100.00;96872.72;5053144;28;20471;-78
2023/12/11 03:50:48;;;;;;;5.73;1.53;;;9.20;99.90;;;9.58;100.00;96870.09;5053295;28;20472;-79
2023/12/11 03:53:17;;;;;;;9.93;1.87;;;9.10;99.90;;;9.55;100.00;96871.31;5052778;28;20939;-79
2023/12/11 03:55:45;;;;;;;7.40;2.10;;;9.10;99.90;;;9.56;100.00;96874.72;5052961;28;20960;-78
2023/12/11 03:58:15;;;;;;;11.93;1.50;;;9.00;99.90;;;9.60;100.00;96886.34;5051153;28;20453;-78
2023/12/11 04:00:43;;;;;;;9.33;1.60;;;9.10;99.90;;;9.58;100.00;96883.94;5048841;28;20579;-79
2023/12/11 04:03:13;;;;;;;6.40;1.90;;;9.10;99.90;;;9.59;100.00;96888.16;5049275;28;20910;-78
2023/12/11 04:05:42;;;;;;;40.03;18.00;;;9.00;99.90;;;9.60;100.00;96879.34;5051469;28;20571;-75
2023/12/11 04:08:12;;;;;;;12.23;3.80;;;9.10;99.90;;;9.57;100.00;96884.19;5050067;28;20472;-78
2023/12/11 04:10:40;;;;;;;12.80;2.10;;;9.00;99.90;;;9.58;100.00;96886.56;5052327;28;20624;-80
2023/12/11 04:13:09;;;;;;;7.53;1.87;;;9.10;99.90;;;9.60;100.00;96881.94;5051585;28;20557;-80
2023/12/11 04:15:38;;;;;;;7.93;1.97;;;9.10;99.90;;;9.60;100.00;96871.50;5049941;28;21133;-79
2023/12/11 04:18:06;;;;;;;9.20;4.37;;;9.10;99.90;;;9.63;100.00;96874.69;5049526;28;20839;-77
2023/12/11 04:20:35;;;;;;;84.17;38.20;;;9.00;99.90;;;9.63;100.00;96874.69;5049554;28;20876;-78
2023/12/11 04:23:03;;;;;;;18.20;6.77;;;9.10;99.90;;;9.62;100.00;96879.13;5049849;28;20469;-79
2023/12/11 04:25:33;;;;;;;8.87;2.90;;;9.10;99.90;;;9.63;100.00;96877.31;5051479;28;21037;-78
2023/12/11 04:28:02;;;;;;;8.37;2.17;;;9.20;99.90;;;9.63;100.00;96866.88;5053363;28;20921;-78
2023/12/11 04:30:30;;;;;;;11.00;1.70;;;9.20;99.90;;;9.64;100.00;96876.31;5056724;28;20517;-78
2023/12/11 04:32:59;;;;;;;5.10;1.77;;;9.20;99.90;;;9.66;100.00;96871.66;5057275;28;20462;-78
2023/12/11 04:35:28;;;;;;;4.30;1.80;;;9.20;99.90;;;9.65;100.00;96881.28;5057242;28;20499;-78
2023/12/11 04:37:56;;;;;;;3.40;1.37;;;9.20;99.90;;;9.67;100.00;96860.22;5058147;28;20991;-78
2023/12/11 04:40:26;;;;;;;7.67;2.27;;;9.20;99.90;;;9.67;100.00;96862.84;5053786;28;20526;-78
2023/12/11 04:42:56;;;;;;;7.13;1.63;;;9.20;99.90;;;9.67;100.00;96850.59;5055428;28;20457;-78
2023/12/11 04:45:25;;;;;;;3.93;1.47;;;9.30;99.90;;;9.73;100.00;96854.16;5055808;28;20496;-79
2023/12/11 04:47:53;;;;;;;10.83;1.97;;;9.20;99.90;;;9.73;100.00;96861.97;5054131;28;21295;-78
2023/12/11 04:50:22;;;;;;;3.43;1.30;;;9.20;99.90;;;9.73;100.00;96849.72;5055366;28;20461;-78
2023/12/11 04:52:51;;;;;;;3.33;1.13;;;9.30;99.90;;;9.73;100.00;96854.94;5052890;28;20971;-77
2023/12/11 04:55:19;;;;;;;4.67;1.83;;;9.30;99.90;;;9.71;100.00;96848.34;5055418;28;20458;-79
2023/12/11 04:57:48;;;;;;;2.90;1.53;;;9.30;99.90;;;9.72;100.00;96844.75;5055800;28;20514;-78
2023/12/11 05:00:18;;;;;;;3.73;1.30;;;9.30;99.90;;;9.69;100.00;96834.69;5055367;28;20475;-78
2023/12/11 05:02:47;;;;;;;5.60;1.60;;;9.30;99.90;;;9.69;100.00;96835.50;5055955;28;20960;-78
2023/12/11 05:05:16;;;;;;;4.00;1.20;;;9.30;99.90;;;9.71;100.00;96825.66;5058392;28;20520;-77
2023/12/11 05:07:45;;;;;;;9.07;1.50;;;9.30;99.90;;;9.70;100.00;96831.09;5056536;28;21029;-79
2023/12/11 05:10:13;;;;;;;6.83;1.70;;;9.30;99.90;;;9.68;100.00;96835.72;5055724;28;20464;-78
2023/12/11 05:12:42;;;;;;;2.23;1.20;;;9.30;99.90;;;9.68;100.00;96835.72;5055307;28;20907;-78
2023/12/11 05:15:11;;;;;;;2.50;1.00;;;9.30;99.90;;;9.72;100.00;96826.47;5055814;28;20468;-78
2023/12/11 05:17:41;;;;;;;2.70;1.07;;;9.30;99.90;;;9.72;100.00;96818.63;5054963;28;20517;-79
2023/12/11 05:20:12;;;;;;;4.30;1.30;;;9.20;99.90;;;9.68;100.00;96835.72;5055922;28;20526;-78
2023/12/11 05:22:41;;;;;;;5.20;1.40;;;9.20;99.90;;;9.69;100.00;96845.13;5055098;28;20500;-78
2023/12/11 05:25:10;;;;;;;5.77;1.60;;;9.20;99.90;;;9.70;100.00;96841.53;5054626;28;20488;-78
2023/12/11 05:27:39;;;;;;;8.10;1.40;;;9.30;99.90;;;9.70;100.00;96842.31;5056262;28;20461;-78
2023/12/11 05:30:09;;;;;;;6.73;1.40;;;9.30;99.90;;;9.70;100.00;96846.75;5056456;28;20469;-78
2023/12/11 05:32:38;;;;;;;9.63;1.40;;;9.20;99.90;;;9.69;100.00;96840.72;5055559;28;20475;-78
2023/12/11 05:35:09;;;;;;;4.23;1.13;;;9.30;99.90;;;9.70;100.00;96846.75;5056046;28;20468;-78
2023/12/11 05:37:38;;;;;;;1.20;1.00;;;9.20;99.90;;;9.69;100.00;96847.75;5054249;28;20456;-78
2023/12/11 05:40:08;;;;;;;37.50;17.50;;;9.30;99.90;;;9.68;100.00;96854.81;5054150;28;20497;-78
2023/12/11 05:42:51;;;;;;;2.83;2.07;;;9.20;99.90;;;9.69;100.00;96852.97;5057724;28;20967;-78
2023/12/11 05:45:20;;;;;;;5.67;1.67;;;9.20;99.90;;;9.67;100.00;96858.41;5055278;28;20488;-79
2023/12/11 05:47:48;;;;;;;3.33;1.20;;;9.20;99.90;;;9.69;100.00;96852.97;5055189;28;20606;-79
2023/12/11 05:50:19;;;;;;;8.07;1.57;;;9.20;99.90;;;9.71;100.00;96870.03;5047232;28;20481;-78
2023/12/11 05:52:48;;;;;;;1.73;1.13;;;9.20;99.90;;;9.75;100.00;96859.97;5044288;28;20467;-78
2023/12/11 05:55:17;;;;;;;3.73;1.53;;;9.20;99.90;;;9.75;100.00;96865.19;5045872;28;20469;-78
2023/12/11 05:57:45;;;;;;;1.70;0.90;;;9.30;99.90;;;9.77;100.00;96855.34;5044651;28;20461;-78
2023/12/11 06:00:17;;;;;;;1.60;1.00;;;9.40;99.90;;;9.80;100.00;96862.75;5052174;28;20460;-78
2023/12/11 06:02:46;;;;;;;3.00;1.20;;;9.30;99.90;;;9.78;100.00;96844.69;5053031;28;20918;-79
2023/12/11 06:05:14;;;;;;;3.63;1.10;;;9.30;99.90;;;9.82;100.00;96840.63;5053762;28;20465;-78
2023/12/11 06:07:45;;;;;;;16.50;5.63;;;9.40;99.90;;;9.85;100.00;96834.19;5052664;28;20465;-77
2023/12/11 06:10:13;;;;;;;4.37;1.20;;;9.40;99.90;;;9.89;100.00;96835.38;5052688;28;20848;-78
2023/12/11 06:12:42;;;;;;;5.60;1.47;;;9.40;99.90;;;9.87;100.00;96826.94;5056165;28;20457;-80
2023/12/11 06:15:12;;;;;;;5.40;1.27;;;9.40;99.90;;;9.87;100.00;96832.97;5055293;28;20468;-78
2023/12/11 06:17:40;;;;;;;4.30;1.10;;;9.40;99.90;;;9.84;100.00;96835.19;5053526;28;20980;-79
2023/12/11 06:20:11;;;;;;;9.63;1.50;;;9.50;99.90;;;9.85;100.00;96845.44;5055669;28;20471;-78
2023/12/11 06:22:39;;;;;;;5.37;1.33;;;9.50;99.90;;;9.85;100.00;96827.16;5055779;28;20464;-79
2023/12/11 06:25:10;;;;;;;5.53;1.33;;;9.50;99.90;;;9.88;100.00;96833.78;5056048;28;20464;-78
2023/12/11 06:27:38;;;;;;;6.77;2.00;;;9.40;99.90;;;9.91;100.00;96830.72;5055699;28;20826;-79
2023/12/11 06:30:08;;;;;;;2.83;1.23;;;9.50;99.90;;;9.93;100.00;96818.25;5052270;28;20469;-78
2023/12/11 06:32:37;;;;;;;6.77;1.67;;;9.50;99.90;;;9.94;100.00;96823.28;5055765;28;21008;-78
2023/12/11 06:35:07;;;;;;;5.40;1.00;;;9.50;99.90;;;9.93;100.00;96826.09;5052851;28;21027;-78
2023/12/11 06:37:36;;;;;;;31.57;17.57;;;9.50;99.90;;;9.92;100.00;96814.06;5051382;28;20898;-76
2023/12/11 06:40:06;;;;;;;6.23;2.90;;;9.50;99.90;;;9.90;100.00;96805.63;5048237;28;20475;-78
2023/12/11 06:42:37;;;;;;;8.00;1.77;;;9.50;99.90;;;9.91;100.00;96804.63;5051301;28;20955;-77
2023/12/11 06:45:08;;;;;;;5.83;1.60;;;9.50;99.90;;;9.91;100.00;96817.69;5051473;28;20495;-77
2023/12/11 06:47:37;;;;;;;5.63;1.33;;;9.50;99.90;;;9.89;100.00;96804.81;5056638;28;20512;-78
2023/12/11 06:50:07;;;;;;;10.77;1.80;;;9.40;99.90;;;9.87;100.00;96817.31;5056835;28;20951;-79
2023/12/11 06:52:36;;;;;;;3.53;0.90;;;9.50;99.90;;;9.85;100.00;96824.56;5055392;28;20476;-78
2023/12/11 06:55:07;;;;;;;7.50;1.60;;;9.40;99.90;;;9.87;100.00;96824.34;5055875;28;20462;-78
2023/12/11 06:57:37;;;;;;;6.30;1.53;;;9.40;99.90;;;9.87;100.00;96834.78;5056901;28;20471;-78
2023/12/11 07:00:09;;;;;;;4.20;1.43;;;9.40;99.90;;;9.89;100.00;96835.38;5057461;28;20504;-78
2023/12/11 07:02:38;;;;;;;5.30;1.20;;;9.50;99.90;;;9.89;100.00;96833.53;5055963;28;21047;-78
2023/12/11 07:05:08;;;;;;;8.77;1.83;;;9.40;99.90;;;9.90;100.00;96842.19;5056515;28;20579;-78
2023/12/11 07:07:37;;;;;;;3.43;1.60;;;9.40;99.90;;;9.91;100.00;96841.97;5057403;28;20531;-78
2023/12/11 07:10:07;;;;;;;3.27;1.30;;;9.40;99.90;;;9.94;100.00;96838.13;5058170;28;20537;-78
2023/12/11 07:12:40;;;;;;;8.60;1.50;;;9.40;99.90;;;9.98;100.00;96836.72;5057158;28;20999;-78
2023/12/11 07:15:10;;;;;;;7.10;1.40;;;9.50;99.90;;;9.97;100.00;96832.47;5054815;28;20468;-78
2023/12/11 07:17:38;;;;;;;3.03;1.50;;;9.50;99.90;;;9.99;100.00;96828.66;5056692;28;20476;-78
2023/12/11 07:20:11;;;;;;;8.97;2.43;;;9.60;99.90;;;10.01;100.00;96834.47;5057807;28;20696;-78
2023/12/11 07:22:40;;;;;;;6.80;2.00;;;9.50;99.90;;;10.03;100.00;96842.09;5055721;28;20469;-78
2023/12/11 07:25:09;;;;;;;7.90;1.63;;;9.50;99.90;;;10.02;100.00;96830.84;5057111;28;20513;-78
2023/12/11 07:27:39;;;;;;;6.20;1.60;;;9.50;99.90;;;10.02;100.00;96840.50;5055884;28;20952;-78
2023/12/11 07:30:10;;;;;;;8.07;1.70;;;9.60;99.90;;;10.03;100.00;96842.09;5054010;28;20530;-78
2023/12/11 07:32:38;;;;;;;11.07;1.73;;;9.60;99.90;;;10.02;100.00;96840.50;5055545;28;20527;-78
2023/12/11 07:35:11;;;;;;;7.53;1.70;;;9.60;99.90;;;10.01;100.00;96841.50;5056248;28;20477;-78
2023/12/11 07:37:42;;;;;;;8.20;2.37;;;9.60;99.90;;;10.00;100.00;96838.09;5055188;28;20891;-78
2023/12/11 07:40:12;;;;;;;2.60;1.57;;;9.60;99.90;;;9.99;100.00;96846.16;5055286;28;20457;-78
2023/12/11 07:42:42;;;;;;;7.27;1.97;;;9.50;99.90;;;10.00;100.00;96847.72;5054289;28;20836;-78
2023/12/11 07:45:12;;;;;;;8.63;2.27;;;9.60;99.90;;;9.97;100.00;96833.28;5057214;28;20513;-78
2023/12/11 07:47:40;;;;;;;7.20;2.30;;;9.60;99.90;;;9.99;100.00;96831.28;5055941;28;20505;-78
2023/12/11 07:50:10;;;;;;;5.83;1.60;;;9.50;99.90;;;9.98;100.00;96834.09;5056439;28;20559;-78
2023/12/11 07:52:39;;;;;;;5.73;1.57;;;9.50;99.90;;;9.96;100.00;96836.91;5055627;28;20548;-78
2023/12/11 07:55:08;;;;;;;4.13;1.70;;;9.50;99.90;;;9.99;100.00;96835.69;5053811;28;21101;-78
2023/12/11 07:57:39;;;;;;;12.67;2.23;;;9.50;99.90;;;9.99;100.00;96846.16;5054287;28;20468;-78
2023/12/11 08:00:12;;;;;;;7.10;1.73;;;9.50;99.90;;;10.03;100.00;96844.72;5054486;28;20608;-78
2023/12/11 08:02:40;;;;;;;14.77;1.87;;;9.60;99.90;;;10.05;100.00;96845.28;5053357;28;20858;-78
2023/12/11 08:05:11;;;;;;;9.60;3.60;;;9.70;99.90;;;10.05;100.00;96846.09;5055480;28;20480;-78
2023/12/11 08:07:40;;;;;;;8.60;2.20;;;9.70;99.90;;;10.09;100.00;96847.28;5056838;28;20516;-79
2023/12/11 08:10:10;;;;;;;8.40;1.80;;;9.70;99.90;;;10.08;100.00;96844.84;5056305;28;20468;-78
2023/12/11 08:12:39;;;;;;;10.53;1.80;;;9.70;99.90;;;10.09;100.00;96852.50;5055134;28;20469;-78
2023/12/11 08:15:10;;;;;;;10.93;2.20;;;9.60;99.90;;;10.12;100.00;96840.81;5056088;28;20517;-78
2023/12/11 08:17:39;;;;;;;8.10;2.07;;;9.70;99.90;;;10.14;100.00;96841.41;5055933;28;20471;-78
2023/12/11 08:20:10;;;;;;;6.67;1.63;;;9.70;99.90;;;10.13;100.00;96839.81;5056810;28;20519;-78
2023/12/11 08:22:41;;;;;;;16.80;3.30;;;9.60;99.90;;;10.16;100.00;96836.00;5054754;28;20538;-79
2023/12/11 08:25:12;;;;;;;7.67;1.70;;;9.70;99.90;;;10.15;100.00;96837.81;5055665;28;20473;-79
2023/12/11 08:27:42;;;;;;;9.77;2.30;;;9.80;99.90;;;10.15;100.00;96845.63;5056458;28;20578;-78
2023/12/11 08:30:14;;;;;;;8.33;1.80;;;9.80;99.90;;;10.17;100.00;96838.38;5052064;28;21240;-78
2023/12/11 08:32:42;;;;;;;10.00;1.90;;;9.80;99.90;;;10.21;100.00;96847.38;5055924;28;20463;-79
2023/12/11 08:35:11;;;;;;;5.10;2.10;;;9.70;99.90;;;10.23;100.00;96845.38;5054941;28;20960;-78
2023/12/11 08:37:39;;;;;;;12.93;2.23;;;9.70;99.90;;;10.25;100.00;96845.94;5053817;28;20530;-78
2023/12/11 08:40:10;;;;;;;18.43;2.80;;;9.80;99.90;;;10.27;100.00;96854.41;5054849;28;20515;-78
2023/12/11 08:42:39;;;;;;;14.47;2.20;;;9.80;99.90;;;10.31;100.00;96846.94;5053754;28;20460;-79
2023/12/11 08:45:11;;;;;;;12.60;2.57;;;9.90;99.90;;;10.32;100.00;96872.81;5051687;28;20967;-78
2023/12/11 08:47:42;;;;;;;7.63;1.80;;;9.80;99.90;;;10.34;100.00;96849.91;5052744;28;20472;-78
2023/12/11 08:50:12;;;;;;;7.13;2.03;;;9.90;99.90;;;10.35;100.00;96861.94;5053888;28;20489;-78
2023/12/11 08:52:44;;;;;;;6.60;2.43;;;9.90;99.90;;;10.36;100.00;96871.38;5055903;28;20466;-78
2023/12/11 08:55:12;;;;;;;12.43;2.57;;;9.80;99.90;;;10.40;100.00;96875.16;5052804;28;20471;-78
2023/12/11 08:57:43;;;;;;;11.23;2.40;;;9.90;99.90;;;10.44;100.00;96878.16;5052664;28;20796;-78
2023/12/11 09:00:15;;;;;;;11.13;2.10;;;9.90;99.90;;;10.45;100.00;96871.91;5054092;28;20548;-78
2023/12/11 09:02:44;;;;;;;12.27;1.90;;;9.90;99.90;;;10.47;100.00;96867.28;5054050;28;21323;-78
2023/12/11 09:05:12;;;;;;;9.20;1.97;;;10.00;99.90;;;10.50;100.00;96874.69;5054122;28;20465;-78
2023/12/11 09:07:41;;;;;;;10.07;2.10;;;10.00;99.90;;;10.49;100.00;96863.41;5055578;28;20495;-79
2023/12/11 09:10:10;;;;;;;12.23;2.07;;;10.10;99.90;;;10.48;100.00;96861.03;5054598;28;20464;-78
2023/12/11 09:12:40;;;;;;;8.30;2.63;;;10.10;99.90;;;10.49;100.00;96866.03;5053375;28;20465;-78
2023/12/11 09:15:10;;;;;;;11.17;2.77;;;10.10;99.90;;;10.50;100.00;96874.69;5053329;28;20482;-78
2023/12/11 09:17:40;;;;;;;19.27;2.43;;;10.10;99.90;;;10.48;100.00;96867.03;5058093;28;20464;-78
2023/12/11 09:20:10;;;;;;;15.23;2.10;;;9.90;99.90;;;10.46;100.00;96869.09;5058492;28;20598;-78
2023/12/11 09:22:41;;;;;;;13.70;2.53;;;10.00;99.90;;;10.48;100.00;96868.88;5057487;28;20461;-78
2023/12/11 09:25:10;;;;;;;9.77;2.83;;;10.00;99.90;;;10.46;100.00;96879.53;5056114;28;20483;-78
2023/12/11 09:27:39;;;;;;;12.90;2.93;;;10.00;99.90;;;10.48;100.00;96882.72;5057372;28;20495;-78
2023/12/11 09:30:10;;;;;;;5.87;1.63;;;10.10;99.90;;;10.49;100.00;96889.56;5056739;28;20475;-78
2023/12/11 09:32:40;;;;;;;22.57;3.23;;;10.00;99.90;;;10.50;100.00;96880.72;5056515;28;20488;-77
2023/12/11 09:35:10;;;;;;;16.00;2.30;;;10.00;99.90;;;10.50;100.00;96883.31;5056412;28;20545;-78
2023/12/11 09:37:39;;;;;;;13.90;2.70;;;10.10;99.90;;;10.50;100.00;96890.34;5058038;28;20544;-78
2023/12/11 09:40:10;;;;;;;8.40;2.10;;;10.10;99.90;;;10.52;100.00;96893.53;5055685;28;20472;-77
2023/12/11 09:42:43;;;;;;;13.93;2.10;;;10.10;99.90;;;10.50;100.00;96896.38;5057872;28;20456;-77
2023/12/11 09:45:16;;;;;;;9.83;2.20;;;10.10;99.90;;;10.50;100.00;96896.38;5055267;28;20587;-78
2023/12/11 09:47:52;;;;;;;13.93;2.50;;;10.20;99.90;;;10.50;100.00;96887.75;5056589;28;20485;-78
2023/12/11 09:50:38;;;;;;;7.17;2.13;;;10.20;99.90;;;10.52;100.00;96896.16;5056287;28;20514;-77
2023/12/11 09:53:08;;;;;;;12.97;2.63;;;10.10;99.90;;;10.52;100.00;96894.34;5057008;28;21195;-78
2023/12/11 09:55:37;;;;;;;15.67;2.57;;;10.10;99.90;;;10.55;100.00;96882.69;5055693;28;20457;-77
2023/12/11 09:58:07;;;;;;;5.93;1.60;;;10.10;99.90;;;10.57;100.00;96891.91;5056131;28;20472;-77
2023/12/11 10:00:37;;;;;;;6.70;2.13;;;10.10;99.90;;;10.59;100.00;96894.28;5057351;28;20883;-78
2023/12/11 10:03:08;;;;;;;17.57;2.60;;;10.10;99.90;;;10.60;100.00;96893.28;5056146;28;20493;-77
2023/12/11 10:05:37;;;;;;;11.60;2.60;;;10.20;99.90;;;10.62;100.00;96895.69;5057693;28;20457;-77
2023/12/11 10:08:06;;;;;;;13.20;3.03;;;10.20;99.90;;;10.63;100.00;96902.50;5055813;28;20489;-77
2023/12/11 10:10:38;;;;;;;18.90;2.10;;;10.20;99.90;;;10.63;100.00;96899.88;5056238;28;20464;-77
2023/12/11 10:13:07;;;;;;;9.03;1.87;;;10.30;99.90;;;10.63;100.00;96900.69;5056701;28;20486;-77
2023/12/11 10:15:37;;;;;;;19.20;2.40;;;10.20;99.90;;;10.66;100.00;96894.22;5054813;28;20468;-77
2023/12/11 10:18:09;;;;;;;8.00;1.93;;;10.20;99.90;;;10.68;100.00;96908.69;5057389;28;20498;-77
2023/12/11 10:20:41;;;;;;;14.20;2.40;;;10.30;99.90;;;10.71;100.00;96899.63;5056179;28;20462;-79
2023/12/11 10:23:16;;;;;;;12.37;2.60;;;10.20;99.90;;;10.72;100.00;96906.44;5056516;28;20500;-77
2023/12/11 10:25:48;;;;;;;8.57;2.20;;;10.30;99.90;;;10.77;100.00;96922.28;5055788;28;21005;-78
2023/12/11 10:28:19;;;;;;;11.63;2.13;;;10.40;99.90;;;10.79;100.00;96904.56;5058008;28;20577;-77
2023/12/11 10:30:56;;;;;;;10.00;2.03;;;10.30;99.90;;;10.85;100.00;96898.47;5056106;28;21009;-77